Time;durP1;ratioP1;P1;durP2;ratioP2;P2;SDS_P1;SDS_P2;PMS_P1;PMS_P2;Temp;Humidity;BMP_temperature;BMP_pressure;BME280_temperature;BME280_humidity;BME280_pressure;Samples;Min_cycle;Max_cycle;Signal;HPM_P1;HPM_P2
2023/04/05 05:57:32;;;;;;;12.85;8.25;;;;;;;;;;4939439;23;20055;-83
2023/04/05 05:59:57;;;;;;;10.93;7.53;;;;;;;;;;4938987;29;20035;-83
2023/04/05 06:02:23;;;;;;;14.68;8.27;;;;;;;;;;4938454;29;20020;-85
2023/04/05 06:04:48;;;;;;;14.23;8.30;;;;;;;;;;4939255;29;20028;-82
2023/04/05 06:07:14;;;;;;;14.20;8.02;;;;;;;;;;4937998;29;20059;-83
2023/04/05 09:34:05;;;;;;;6.60;4.33;;;;;;;;;;4914781;29;20060;-82
2023/04/05 09:36:34;;;;;;;15.75;4.93;;;;;;;;;;4916678;29;20293;-82
2023/04/05 09:39:07;;;;;;;9.60;4.72;;;;;;;;;;4916636;29;20032;-81
2023/04/05 09:41:34;;;;;;;10.40;4.50;;;;;;;;;;4918571;29;20032;-82
2023/04/05 09:44:00;;;;;;;7.95;5.55;;;;;;;;;;4920010;29;20024;-82
2023/04/05 09:46:36;;;;;;;12.88;4.63;;;;;;;;;;4920056;29;20028;-82
2023/04/05 09:49:02;;;;;;;7.45;4.35;;;;;;;;;;4920375;29;20021;-83
2023/04/05 09:51:32;;;;;;;7.40;4.00;;;;;;;;;;4919812;29;20035;-85
2023/04/05 09:54:00;;;;;;;8.95;4.40;;;;;;;;;;4920022;29;20118;-84
2023/04/05 09:56:27;;;;;;;6.97;4.35;;;;;;;;;;4919710;29;20071;-84
2023/04/05 09:59:00;;;;;;;5.72;4.50;;;;;;;;;;4919936;29;20036;-85
2023/04/05 10:01:30;;;;;;;8.75;4.68;;;;;;;;;;4919533;29;20024;-84
2023/04/05 10:03:56;;;;;;;;;;;;;;;;;;4920046;29;20028;-83
2023/04/05 10:06:21;;;;;;;11.70;4.63;;;;;;;;;;4919652;29;19919;-85
2023/04/05 10:08:47;;;;;;;9.95;4.50;;;;;;;;;;4919474;29;20024;-85
2023/04/05 10:11:17;;;;;;;9.25;4.65;;;;;;;;;;4919533;29;20027;-86
2023/04/05 10:13:44;;;;;;;11.70;4.47;;;;;;;;;;4902600;29;20483;-87
2023/04/05 10:16:15;;;;;;;9.65;4.30;;;;;;;;;;4921570;29;20036;-87
2023/04/05 10:18:48;;;;;;;8.73;4.63;;;;;;;;;;4921341;29;20160;-85
2023/04/05 10:21:17;;;;;;;5.53;4.68;;;;;;;;;;4902574;29;20436;-85
2023/04/05 10:23:45;;;;;;;9.57;4.25;;;;;;;;;;4919439;29;20035;-86
2023/04/05 10:26:40;;;;;;;5.88;4.10;;;;;;;;;;4919278;29;20028;-84
2023/04/05 10:29:12;;;;;;;5.85;4.57;;;;;;;;;;4918891;29;20422;-86
2023/04/05 10:32:04;;;;;;;7.40;4.55;;;;;;;;;;4919410;29;20490;-84
2023/04/05 10:34:43;;;;;;;10.35;5.80;;;;;;;;;;4915466;29;20052;-84
2023/04/05 10:37:21;;;;;;;11.43;4.80;;;;;;;;;;4918973;29;20042;-85
2023/04/05 10:39:47;;;;;;;9.77;4.82;;;;;;;;;;4902140;29;20028;-83
2023/04/05 10:42:20;;;;;;;7.00;3.95;;;;;;;;;;4919109;29;20028;-84
2023/04/05 10:44:50;;;;;;;5.60;4.07;;;;;;;;;;4919022;29;20032;-83
2023/04/05 10:47:18;;;;;;;4.55;4.00;;;;;;;;;;4918829;29;20427;-86
2023/04/05 10:49:49;;;;;;;7.68;4.22;;;;;;;;;;4919007;29;20099;-87
2023/04/05 10:52:16;;;;;;;7.07;4.38;;;;;;;;;;4918167;29;20024;-89
2023/04/05 10:54:43;;;;;;;5.30;3.63;;;;;;;;;;4918834;29;20059;-89
2023/04/05 10:57:09;;;;;;;6.68;4.05;;;;;;;;;;4918830;29;20063;-85
2023/04/05 10:59:40;;;;;;;7.82;4.10;;;;;;;;;;4918819;29;20028;-92
2023/04/05 11:02:06;;;;;;;7.00;4.15;;;;;;;;;;4919139;29;20468;-89
2023/04/05 11:04:33;;;;;;;8.68;4.22;;;;;;;;;;4918687;29;20427;-84
2023/04/05 11:07:14;;;;;;;5.85;4.40;;;;;;;;;;4918956;29;20103;-87
2023/04/05 11:10:02;;;;;;;10.82;4.50;;;;;;;;;;4919473;29;20539;-87
2023/04/05 11:12:45;;;;;;;4.82;4.13;;;;;;;;;;4918659;29;20024;-89
2023/04/05 11:15:30;;;;;;;9.10;4.88;;;;;;;;;;4918529;29;20483;-87
2023/04/05 11:18:02;;;;;;;5.72;4.43;;;;;;;;;;4918522;29;20091;-89
2023/04/05 11:20:42;;;;;;;6.95;4.50;;;;;;;;;;4901583;29;20032;-87
2023/04/05 11:23:09;;;;;;;7.07;4.70;;;;;;;;;;4918169;29;20381;-86
2023/04/05 11:25:39;;;;;;;6.72;5.35;;;;;;;;;;4918346;29;20538;-89
2023/04/05 11:28:05;;;;;;;8.10;4.50;;;;;;;;;;4918439;29;20123;-84
2023/04/05 11:30:55;;;;;;;5.95;4.50;;;;;;;;;;4918380;29;20059;-92
2023/04/05 11:33:45;;;;;;;8.70;5.63;;;;;;;;;;4901754;29;20086;-91
2023/04/05 11:36:12;;;;;;;12.00;5.40;;;;;;;;;;4919439;29;20032;-93
2023/04/05 11:38:39;;;;;;;15.13;5.90;;;;;;;;;;4918500;29;20024;-89
2023/04/05 11:41:20;;;;;;;8.90;5.18;;;;;;;;;;4918778;29;20036;-85
2023/04/05 11:43:51;;;;;;;9.52;4.65;;;;;;;;;;4918748;29;20036;-86
2023/04/05 11:46:17;;;;;;;9.77;4.85;;;;;;;;;;4918704;29;20356;-89
2023/04/05 17:22:40;;;;;;;7.10;6.07;;;;;;;;;;4917320;29;20064;-89
2023/04/05 17:25:06;;;;;;;10.98;6.90;;;;;;;;;;4905529;29;20040;-85
2023/04/05 17:27:32;;;;;;;6.70;5.72;;;;;;;;;;4901544;29;20039;-85
2023/04/05 17:30:00;;;;;;;7.30;5.30;;;;;;;;;;4883892;29;20040;-85
2023/04/05 17:32:28;;;;;;;10.38;7.28;;;;;;;;;;4882820;29;20056;-85
2023/04/05 17:34:53;;;;;;;100.07;37.70;;;;;;;;;;4884501;29;20033;-84
2023/04/05 17:37:19;;;;;;;12.02;8.07;;;;;;;;;;4901473;29;20376;-86
2023/04/05 17:39:44;;;;;;;11.82;6.28;;;;;;;;;;4901151;29;20112;-85
2023/04/05 17:42:11;;;;;;;14.10;7.57;;;;;;;;;;4901546;29;20028;-85
2023/04/05 17:44:36;;;;;;;15.80;10.73;;;;;;;;;;4901384;29;20106;-85
2023/04/05 17:47:01;;;;;;;10.50;7.75;;;;;;;;;;4901529;29;20047;-86
2023/04/05 17:49:27;;;;;;;8.50;5.97;;;;;;;;;;4901126;29;20033;-85
2023/04/05 17:51:53;;;;;;;9.38;7.45;;;;;;;;;;4901481;29;20028;-86
2023/04/05 17:54:18;;;;;;;10.02;7.30;;;;;;;;;;4901247;29;20056;-86
2023/04/05 17:56:44;;;;;;;10.00;6.90;;;;;;;;;;4901496;29;20032;-85
2023/04/05 17:59:10;;;;;;;6.70;6.00;;;;;;;;;;4900978;29;20029;-86
2023/04/05 18:01:35;;;;;;;7.35;6.20;;;;;;;;;;4900402;29;20428;-83
2023/04/05 18:04:01;;;;;;;7.78;6.80;;;;;;;;;;4901335;29;20365;-80
2023/04/05 18:06:26;;;;;;;6.80;6.15;;;;;;;;;;4900839;29;20428;-79
2023/04/05 18:08:52;;;;;;;10.88;7.30;;;;;;;;;;4900919;29;20033;-80
2023/04/05 18:11:17;;;;;;;8.13;6.00;;;;;;;;;;4900964;29;20036;-80
2023/04/05 18:13:43;;;;;;;14.35;8.57;;;;;;;;;;4900845;29;20538;-81
2023/04/05 18:16:08;;;;;;;9.93;8.07;;;;;;;;;;4900850;29;20047;-79
2023/04/05 18:18:34;;;;;;;9.65;7.10;;;;;;;;;;4900527;29;20040;-80
2023/04/05 18:21:02;;;;;;;7.50;6.70;;;;;;;;;;4900734;29;20148;-79
2023/04/05 18:23:28;;;;;;;7.18;6.38;;;;;;;;;;4900404;29;20041;-79
2023/04/05 18:25:53;;;;;;;13.13;9.35;;;;;;;;;;4900351;29;20083;-79
2023/04/05 18:28:20;;;;;;;13.45;8.40;;;;;;;;;;4900620;29;20036;-79
2023/04/05 18:30:48;;;;;;;10.23;7.70;;;;;;;;;;4900647;29;20040;-80
2023/04/05 18:33:14;;;;;;;8.15;7.15;;;;;;;;;;4900490;29;20164;-79
2023/04/05 18:35:40;;;;;;;17.02;11.90;;;;;;;;;;4900348;29;20493;-80
2023/04/05 18:38:05;;;;;;;21.48;14.27;;;;;;;;;;4900018;29;20479;-80
2023/04/05 18:40:31;;;;;;;25.60;15.77;;;;;;;;;;4901120;29;20620;-80
2023/04/05 18:42:57;;;;;;;40.00;22.80;;;;;;;;;;4919078;29;20058;-82
2023/04/05 18:45:22;;;;;;;39.70;23.30;;;;;;;;;;4919099;29;20464;-81
2023/04/05 18:47:49;;;;;;;30.77;15.57;;;;;;;;;;4919051;29;20120;-81
2023/04/05 18:50:15;;;;;;;21.45;13.30;;;;;;;;;;4919190;29;20456;-81
2023/04/05 18:52:40;;;;;;;19.30;11.95;;;;;;;;;;4919229;29;20072;-81
2023/04/05 18:55:07;;;;;;;14.95;10.18;;;;;;;;;;4919145;29;20390;-82
